Time;durP1;ratioP1;P1;durP2;ratioP2;P2;SDS_P1;SDS_P2;PMS_P1;PMS_P2;Temp;Humidity;BMP_temperature;BMP_pressure;BME280_temperature;BME280_humidity;BME280_pressure;Samples;Min_cycle;Max_cycle;Signal;HPM_P1;HPM_P2
2021/07/17 00:00:11;;;;;;;;;12.50;10.50;;;;;18.61;56.92;102241.03;4996909;28;47028;-92
2021/07/17 00:02:37;;;;;;;;;13.50;10.50;;;;;18.56;57.17;102231.56;4997007;28;46494;-92
2021/07/17 00:05:10;;;;;;;;;14.75;10.25;;;;;18.58;56.87;102228.84;4996822;28;45245;-91
2021/07/17 00:07:37;;;;;;;;;11.33;11.33;;;;;18.61;57.36;102235.75;5013769;28;45329;-91
2021/07/17 00:10:06;;;;;;;;;15.67;12.00;;;;;18.61;57.24;102238.41;5013198;28;47314;-92
2021/07/17 00:12:32;;;;;;;;;12.67;12.00;;;;;18.54;57.22;102233.41;4996691;28;45473;-91
2021/07/17 00:14:57;;;;;;;;;13.75;11.00;;;;;18.53;57.21;102225.56;4993426;28;45354;-93
2021/07/17 00:17:22;;;;;;;;;13.50;10.75;;;;;18.52;57.39;102229.97;4977231;28;45287;-91
2021/07/17 00:19:48;;;;;;;;;12.25;10.75;;;;;18.52;57.22;102239.69;4976936;28;48170;-91
2021/07/17 00:22:13;;;;;;;;;13.75;12.25;;;;;18.50;57.46;102233.59;4977224;28;44839;-92
2021/07/17 00:24:38;;;;;;;;;14.25;11.75;;;;;18.46;57.27;102234.69;4978934;28;45418;-92
2021/07/17 00:27:04;;;;;;;;;12.00;10.00;;;;;18.44;57.48;102226.84;4999205;28;45348;-92
2021/07/17 00:29:30;;;;;;;;;13.50;10.50;;;;;18.43;57.28;102236.53;5016621;28;47093;-92
2021/07/17 00:31:55;;;;;;;;;13.00;12.50;;;;;18.42;57.14;102236.59;5000374;28;45200;-92
2021/07/17 00:34:21;;;;;;;;;14.33;11.67;;;;;18.38;57.43;102227.97;5016350;28;45369;-92
2021/07/17 00:36:46;;;;;;;;;12.00;10.67;;;;;18.37;57.23;102230.69;5015032;28;45501;-91
2021/07/17 00:39:11;;;;;;;;;16.33;11.33;;;;;18.33;57.59;102229.13;4996616;28;47379;-93
2021/07/17 00:41:37;;;;;;;;;18.00;13.75;;;;;18.31;57.74;102226.53;4996797;28;45224;-92
2021/07/17 00:44:02;;;;;;;;;14.50;13.25;;;;;18.27;57.77;102231.09;4980505;28;45292;-92
2021/07/17 00:46:28;;;;;;;;;11.75;10.25;;;;;18.29;57.69;102233.69;5013430;28;45520;-93
2021/07/17 00:48:54;;;;;;;;;12.25;12.25;;;;;18.24;57.60;102228.59;4980947;28;45514;-92
2021/07/17 00:51:22;;;;;;;;;16.75;13.50;;;;;18.24;57.63;102230.38;4996325;28;45936;-92
2021/07/17 00:53:48;;;;;;;;;11.50;11.50;;;;;18.16;57.89;102228.94;4980346;28;45433;-92
2021/07/17 00:56:15;;;;;;;;;14.75;11.75;;;;;18.15;57.75;102229.03;4996871;28;45439;-92
2021/07/17 00:58:42;;;;;;;;;16.50;15.25;;;;;18.14;57.81;102235.19;5011854;28;47486;-92
2021/07/17 01:01:08;;;;;;;;;16.25;12.00;;;;;18.12;57.89;102237.03;5019877;28;45230;-91
2021/07/17 01:03:34;;;;;;;;;12.00;11.25;;;;;18.10;58.02;102236.28;5019792;28;45667;-91
2021/07/17 01:06:00;;;;;;;;;14.50;13.00;;;;;18.07;58.35;102236.41;5019677;28;45354;-92
2021/07/17 01:08:25;;;;;;;;;16.00;11.75;;;;;18.07;58.34;102239.03;5012972;28;47581;-92
2021/07/17 01:10:51;;;;;;;;;15.25;12.25;;;;;18.02;58.12;102232.16;4999562;28;45463;-92
2021/07/17 01:13:16;;;;;;;;;14.25;11.00;;;;;18.01;58.05;102229.59;4999414;28;44723;-92
2021/07/17 01:15:42;;;;;;;;;14.00;12.00;;;;;18.00;58.25;102233.13;4999646;28;45423;-91
2021/07/17 01:18:08;;;;;;;;;23.00;16.50;;;;;18.01;58.02;102234.88;4999467;28;46815;-92
2021/07/17 01:20:34;;;;;;;;;13.75;13.00;;;;;18.01;58.45;102237.50;4997584;28;45409;-92
2021/07/17 01:22:59;;;;;;;;;19.00;13.50;;;;;17.99;58.26;102236.69;4999507;28;45449;-92
2021/07/17 01:25:27;;;;;;;;;16.50;13.00;;;;;17.97;58.59;102243.81;4999489;28;45402;-92
2021/07/17 01:27:55;;;;;;;;;13.33;11.00;;;;;17.94;58.24;102229.00;4999118;28;47227;-91
2021/07/17 01:30:24;;;;;;;;;17.67;12.00;;;;;17.92;58.54;102230.88;4998745;28;46072;-91
2021/07/17 01:32:50;;;;;;;;;12.50;11.50;;;;;17.92;58.62;102236.13;4995591;28;45509;-92
2021/07/17 01:35:15;;;;;;;;;14.25;12.00;;;;;17.90;58.58;102236.19;4995863;28;45300;-90
2021/07/17 01:37:41;;;;;;;;;14.00;12.00;;;;;17.86;58.92;102221.44;4995788;28;47486;-92
2021/07/17 01:40:10;;;;;;;;;13.33;12.33;;;;;17.86;58.76;102226.69;4996806;28;45188;-92
2021/07/17 01:42:37;;;;;;;;;14.00;12.00;;;;;17.84;58.98;102223.28;4979480;28;45416;-92
2021/07/17 01:45:05;;;;;;;;;16.75;13.75;;;;;17.84;58.95;102219.78;4979400;28;45362;-91
2021/07/17 01:47:30;;;;;;;;;15.00;11.67;;;;;17.78;58.68;102215.66;4979102;28;47437;-91
2021/07/17 01:49:58;;;;;;;;;14.75;12.75;;;;;17.77;58.94;102216.56;4995710;28;45328;-92
2021/07/17 01:52:23;;;;;;;;;12.50;11.50;;;;;17.76;58.67;102220.13;4998570;28;44735;-92
2021/07/17 01:54:48;;;;;;;;;15.33;13.00;;;;;17.75;58.69;102221.91;5009149;28;45406;-92
2021/07/17 01:57:14;;;;;;;;;17.75;15.50;;;;;17.72;58.88;102214.13;5018568;28;47193;-92
2021/07/17 01:59:40;;;;;;;;;16.75;13.25;;;;;17.71;58.90;102209.78;5018931;28;45353;-92
2021/07/17 02:02:08;;;;;;;;;12.00;12.00;;;;;17.72;58.67;102229.94;5007934;28;45345;-91
2021/07/17 02:04:34;;;;;;;;;12.50;11.25;;;;;17.62;59.07;102221.56;4998921;28;45351;-91
2021/07/17 02:06:59;;;;;;;;;14.25;12.75;;;;;17.60;59.10;102220.75;4998587;28;47203;-92
2021/07/17 02:09:25;;;;;;;;;11.75;10.50;;;;;17.60;59.17;102222.56;4998725;28;45327;-91
2021/07/17 02:11:50;;;;;;;;;12.50;12.50;;;;;17.56;59.12;102223.59;4995335;28;45314;-91
2021/07/17 02:14:15;;;;;;;;;13.75;12.00;;;;;17.56;59.16;102224.47;4994909;28;45396;-91
2021/07/17 02:16:41;;;;;;;;;13.67;11.00;;;;;17.56;59.60;102221.84;4980213;28;47126;-92
2021/07/17 02:19:17;;;;;;;;;24.00;13.25;;;;;17.53;59.28;102213.22;4998615;28;45388;-92
2021/07/17 02:21:46;;;;;;;;;13.67;12.00;;;;;17.56;58.99;102224.47;4998596;28;45230;-91
2021/07/17 02:24:12;;;;;;;;;17.33;13.33;;;;;17.53;59.19;102229.00;4995061;28;45358;-92
2021/07/17 02:26:37;;;;;;;;;12.00;11.67;;;;;17.50;59.41;102222.94;4998041;28;47600;-92
2021/07/17 02:29:03;;;;;;;;;15.00;13.33;;;;;17.52;59.41;102224.63;4998390;28;45317;-92
2021/07/17 02:31:28;;;;;;;;;15.75;14.50;;;;;17.47;59.08;102214.31;4998619;28;45437;-92
2021/07/17 02:33:54;;;;;;;;;16.75;13.25;;;;;17.43;59.48;102213.59;4998363;28;44901;-90
2021/07/17 02:36:19;;;;;;;;;17.25;15.00;;;;;17.43;59.68;102210.97;4999284;28;45361;-91
2021/07/17 02:38:45;;;;;;;;;18.50;14.50;;;;;17.41;59.66;102211.94;4994830;28;45445;-91
2021/07/17 02:41:10;;;;;;;;;12.00;11.25;;;;;17.39;59.74;102212.00;4978651;28;45862;-92
2021/07/17 02:43:35;;;;;;;;;16.00;13.50;;;;;17.36;59.89;102214.78;4978808;28;45268;-91
2021/07/17 02:46:01;;;;;;;;;16.00;13.00;;;;;17.34;59.68;102211.34;4994722;28;47128;-92
2021/07/17 02:48:26;;;;;;;;;18.50;15.50;;;;;17.33;59.39;102222.78;5014819;28;46286;-92
2021/07/17 02:50:52;;;;;;;;;19.00;14.00;;;;;17.31;59.33;102214.09;5018122;28;45316;-92
2021/07/17 02:53:17;;;;;;;;;15.00;15.00;;;;;17.29;59.99;102211.53;5017981;28;45564;-92
2021/07/17 02:55:42;;;;;;;;;17.75;16.00;;;;;17.27;59.92;102210.72;5005559;28;47141;-91
2021/07/17 02:58:08;;;;;;;;;19.50;16.25;;;;;17.28;60.26;102208.97;4994531;28;45395;-91
2021/07/17 03:00:34;;;;;;;;;19.50;19.25;;;;;17.26;59.79;102203.75;4994751;28;45369;-92
2021/07/17 03:03:00;;;;;;;;;23.00;19.50;;;;;17.23;59.92;102207.38;4978607;28;45573;-92
2021/07/17 03:05:26;;;;;;;;;21.75;16.75;;;;;17.24;59.94;102213.50;4994548;28;47312;-92
2021/07/17 03:07:51;;;;;;;;;18.75;18.00;;;;;17.20;60.13;102209.25;4994411;28;45376;-92
2021/07/17 03:10:16;;;;;;;;;19.75;16.25;;;;;17.20;60.42;102217.16;4994588;28;45683;-92
2021/07/17 03:12:42;;;;;;;;;14.25;14.00;;;;;17.16;60.06;102224.31;4979714;28;45270;-92
2021/07/17 03:15:08;;;;;;;;;21.00;17.50;;;;;17.17;59.95;102223.41;4977805;28;47066;-92
2021/07/17 03:17:33;;;;;;;;;19.00;17.00;;;;;17.17;60.78;102230.44;4987648;28;45887;-92
2021/07/17 03:19:59;;;;;;;;;15.00;15.00;;;;;17.14;60.29;102227.94;5014068;28;45472;-92
2021/07/17 03:22:24;;;;;;;;;14.00;12.25;;;;;17.13;60.41;102223.59;5014385;28;45450;-91
2021/07/17 03:24:50;;;;;;;;;19.50;15.00;;;;;17.14;60.09;102225.31;5013991;28;46943;-92
2021/07/17 03:27:15;;;;;;;;;20.75;15.00;;;;;17.09;60.19;102226.34;5009415;28;44739;-92
2021/07/17 03:29:40;;;;;;;;;14.75;13.00;;;;;17.08;60.64;102226.41;4997756;28;45849;-92
2021/07/17 03:32:06;;;;;;;;;17.00;16.00;;;;;17.05;60.81;102218.63;4997694;28;45281;-92
2021/07/17 03:34:32;;;;;;;;;17.25;13.75;;;;;17.04;60.43;102219.56;4997446;28;47413;-92
2021/07/17 03:36:57;;;;;;;;;11.50;11.50;;;;;17.04;60.57;102217.78;4997208;28;45707;-91
2021/07/17 03:39:22;;;;;;;;;14.00;13.25;;;;;17.01;60.58;102227.53;4993924;28;44813;-92
2021/07/17 03:41:48;;;;;;;;;18.75;18.25;;;;;17.00;60.54;102220.56;4977754;28;45197;-91
2021/07/17 03:44:13;;;;;;;;;17.25;14.00;;;;;16.99;60.65;102210.97;4979534;28;47277;-91
2021/07/17 03:46:39;;;;;;;;;16.25;13.00;;;;;16.99;60.61;102216.22;5013658;28;45263;-91
2021/07/17 03:49:04;;;;;;;;;19.75;16.00;;;;;16.95;60.96;102204.97;4997074;28;45475;-92
2021/07/17 03:51:30;;;;;;;;;17.00;13.50;;;;;16.94;60.50;102208.53;4997741;28;45672;-92
2021/07/17 03:53:56;;;;;;;;;18.75;15.50;;;;;16.96;60.71;102225.94;4996844;28;47371;-91
2021/07/17 03:56:21;;;;;;;;;14.00;12.75;;;;;16.93;60.82;102217.31;4997109;28;45358;-92
2021/07/17 03:58:47;;;;;;;;;18.00;14.50;;;;;16.89;60.78;102216.56;5012600;28;45318;-91
2021/07/17 04:01:12;;;;;;;;;21.75;12.25;;;;;16.90;60.83;102218.28;4993729;28;45379;-90
2021/07/17 04:03:37;;;;;;;;;19.50;16.75;;;;;16.89;60.94;102224.47;4993922;28;47394;-92
2021/07/17 04:06:03;;;;;;;;;19.50;15.25;;;;;16.89;60.91;102221.00;4993672;28;46083;-91
2021/07/17 04:08:28;;;;;;;;;18.00;15.00;;;;;16.85;60.91;102222.88;4977416;28;45495;-92
2021/07/17 04:10:54;;;;;;;;;15.00;14.50;;;;;16.81;61.00;102221.28;4997152;28;45353;-92
2021/07/17 04:13:19;;;;;;;;;14.75;14.50;;;;;16.78;61.25;102224.91;5016147;28;47641;-91
2021/07/17 04:15:44;;;;;;;;;19.00;17.00;;;;;16.77;61.09;102230.22;5016652;28;45432;-92
2021/07/17 04:18:10;;;;;;;;;16.25;16.00;;;;;16.74;61.16;102220.66;5016718;28;45367;-93
2021/07/17 04:20:35;;;;;;;;;18.50;16.25;;;;;16.74;61.10;102225.91;5010003;28;45620;-92
2021/07/17 04:23:01;;;;;;;;;16.50;15.25;;;;;16.76;61.00;102228.50;4996881;28;47041;-92
2021/07/17 04:25:27;;;;;;;;;20.75;15.75;;;;;16.73;61.37;102218.97;4996499;28;45243;-92
2021/07/17 04:27:52;;;;;;;;;19.50;18.00;;;;;16.72;61.45;102224.25;4996691;28;45420;-92
2021/07/17 04:30:17;;;;;;;;;21.00;19.00;;;;;16.73;61.52;102223.34;5013518;28;45240;-91
2021/07/17 04:32:43;;;;;;;;;20.25;19.50;;;;;16.70;61.48;102227.81;4994423;28;47484;-91
2021/07/17 04:35:09;;;;;;;;;18.50;15.25;;;;;16.68;61.70;102221.75;4996678;28;45256;-93
2021/07/17 04:37:34;;;;;;;;;17.25;16.25;;;;;16.66;61.49;102226.22;4996604;28;45350;-92
2021/07/17 04:40:00;;;;;;;;;17.50;14.50;;;;;16.68;61.56;102234.03;4996804;28;45298;-92
2021/07/17 04:42:26;;;;;;;;;20.50;17.50;;;;;16.66;61.78;102233.25;4987875;28;47145;-92
2021/07/17 04:44:51;;;;;;;;;19.25;16.75;;;;;16.66;61.80;102235.88;4976568;28;45423;-91
2021/07/17 04:47:17;;;;;;;;;16.25;15.75;;;;;16.65;61.88;102232.38;4977129;28;45284;-92
2021/07/17 04:49:42;;;;;;;;;23.25;17.75;;;;;16.65;61.53;102237.66;4976736;28;45390;-92
2021/07/17 04:52:08;;;;;;;;;17.50;15.50;;;;;16.63;62.01;102242.13;4993386;28;47245;-92
2021/07/17 04:54:33;;;;;;;;;16.00;14.50;;;;;16.63;61.53;102236.00;4993122;28;45370;-92
2021/07/17 04:56:59;;;;;;;;;18.50;17.25;;;;;16.63;61.83;102241.25;4979767;28;44724;-92
2021/07/17 04:59:24;;;;;;;;;16.25;15.50;;;;;16.67;62.02;102250.72;4996690;28;45370;-92
2021/07/17 05:01:50;;;;;;;;;19.75;17.00;;;;;16.67;61.57;102251.56;4996211;28;48057;-92
2021/07/17 05:04:15;;;;;;;;;17.25;15.50;;;;;16.65;61.94;102245.53;4989178;28;45833;-92
2021/07/17 05:06:40;;;;;;;;;17.25;17.25;;;;;16.68;61.71;102252.44;4978153;28;45260;-92
2021/07/17 05:09:06;;;;;;;;;22.50;18.25;;;;;16.67;62.21;102254.19;4976746;28;44854;-92
2021/07/17 05:11:31;;;;;;;;;20.00;16.75;;;;;16.67;61.56;102250.72;4978037;28;48485;-92
2021/07/17 05:13:57;;;;;;;;;16.75;15.25;;;;;16.67;62.25;102246.31;4980326;28;45929;-91
2021/07/17 05:16:22;;;;;;;;;19.75;17.75;;;;;16.70;62.32;102254.09;4996188;28;44699;-92
2021/07/17 05:18:48;;;;;;;;;18.00;17.50;;;;;16.73;62.24;102250.50;4996620;28;45256;-91
2021/07/17 05:21:15;;;;;;;;;21.25;14.75;;;;;16.78;62.09;102251.19;4996396;28;47216;-91
2021/07/17 05:23:43;;;;;;;;;19.25;16.50;;;;;16.77;61.92;102244.22;4979671;28;45431;-92
2021/07/17 05:26:09;;;;;;;;;21.50;17.00;;;;;16.82;62.18;102257.19;4996699;28;45473;-92
2021/07/17 05:28:35;;;;;;;;;18.75;15.75;;;;;16.83;62.16;102254.50;4984497;28;45196;-91
2021/07/17 05:31:00;;;;;;;;;22.75;16.00;;;;;16.82;62.13;102244.88;4987143;28;47031;-92
2021/07/17 05:33:26;;;;;;;;;20.50;19.25;;;;;16.84;62.42;102252.69;4996400;28;45299;-92
2021/07/17 05:35:51;;;;;;;;;19.75;18.25;;;;;16.84;62.23;102247.44;4985084;28;45299;-92
2021/07/17 05:38:16;;;;;;;;;19.75;16.75;;;;;16.86;62.27;102240.38;4995881;28;45291;-92
2021/07/17 05:40:42;;;;;;;;;21.25;17.25;;;;;16.86;62.06;102240.38;4999158;28;47146;-92
2021/07/17 05:43:07;;;;;;;;;18.75;16.50;;;;;16.89;62.28;102248.13;4999116;28;45584;-92
2021/07/17 05:45:33;;;;;;;;;17.00;17.00;;;;;16.91;62.20;102248.94;4999528;28;45445;-92
2021/07/17 05:47:58;;;;;;;;;17.25;14.25;;;;;16.92;62.22;102244.53;4997533;28;45578;-94
2021/07/17 05:50:24;;;;;;;;;19.75;16.50;;;;;16.99;61.97;102250.41;5015060;28;46911;-92
2021/07/17 05:52:49;;;;;;;;;20.50;18.00;;;;;16.98;62.45;102248.69;4998913;28;45224;-91
2021/07/17 05:55:15;;;;;;;;;24.00;18.50;;;;;17.02;62.49;102251.13;5015821;28;45302;-92
2021/07/17 05:57:40;;;;;;;;;18.75;16.00;;;;;17.05;62.54;102244.94;4996484;28;45615;-93
2021/07/17 06:00:07;;;;;;;;;17.25;16.75;;;;;17.06;62.50;102244.00;4996156;28;47216;-92
2021/07/17 06:02:32;;;;;;;;;17.50;17.25;;;;;17.09;62.36;102247.38;4979407;28;45534;-92
2021/07/17 06:04:58;;;;;;;;;16.25;14.25;;;;;17.11;62.26;102238.59;4995667;28;45462;-92
2021/07/17 06:07:23;;;;;;;;;19.75;17.75;;;;;17.15;62.25;102246.28;4999279;28;45319;-93
2021/07/17 06:09:49;;;;;;;;;22.75;16.75;;;;;17.17;62.29;102247.06;4998924;28;47340;-92
2021/07/17 06:12:14;;;;;;;;;21.00;17.00;;;;;17.18;62.38;102253.19;4998516;28;45850;-92
2021/07/17 06:14:40;;;;;;;;;22.00;16.75;;;;;17.20;62.37;102249.59;4998818;28;45314;-92
2021/07/17 06:17:11;;;;;;;;;24.75;22.00;;;;;17.20;62.54;102249.59;4998791;28;45232;-92
2021/07/17 06:19:36;;;;;;;;;24.25;19.75;;;;;17.21;62.42;102248.66;4998362;28;47408;-94
2021/07/17 06:22:02;;;;;;;;;18.75;16.75;;;;;17.26;62.40;102255.53;5002147;28;44789;-92
2021/07/17 06:24:27;;;;;;;;;19.50;18.00;;;;;17.26;62.44;102247.63;4993788;28;45500;-93
2021/07/17 06:26:53;;;;;;;;;25.25;20.50;;;;;17.31;62.47;102254.41;4995241;28;45459;-92
2021/07/17 06:29:18;;;;;;;;;24.25;18.25;;;;;17.34;62.43;102254.31;4995675;28;48320;-92
2021/07/17 06:31:44;;;;;;;;;21.25;18.50;;;;;17.36;62.23;102252.44;4991109;28;46026;-92
2021/07/17 06:34:09;;;;;;;;;23.50;20.00;;;;;17.42;62.26;102261.88;4986504;28;45393;-92
2021/07/17 06:36:34;;;;;;;;;19.50;19.50;;;;;17.46;62.53;102260.81;4998969;28;45256;-92
2021/07/17 06:39:00;;;;;;;;;22.75;21.25;;;;;17.51;62.50;102260.66;5003126;28;47414;-92
2021/07/17 06:41:25;;;;;;;;;24.50;20.75;;;;;17.56;61.95;102263.94;4998136;28;45201;-92
2021/07/17 06:43:51;;;;;;;;;21.00;19.00;;;;;17.60;62.51;102273.41;5014914;28;45216;-92
2021/07/17 06:46:16;;;;;;;;;21.50;18.50;;;;;17.66;62.24;102268.81;5005251;28;45294;-92
2021/07/17 06:48:42;;;;;;;;;21.50;19.25;;;;;17.71;62.19;102266.84;4994804;28;47155;-91
2021/07/17 06:51:08;;;;;;;;;23.75;21.50;;;;;17.72;61.70;102258.88;4996540;28;45370;-92
2021/07/17 06:53:35;;;;;;;;;21.75;20.25;;;;;17.79;61.73;102269.16;5014749;28;45311;-93
2021/07/17 06:56:00;;;;;;;;;20.00;17.25;;;;;17.85;61.70;102271.53;4995804;28;45362;-94
2021/07/17 06:58:25;;;;;;;;;23.50;18.50;;;;;17.86;61.89;102273.22;4996914;28;46947;-95
2021/07/17 07:00:51;;;;;;;;;22.75;19.25;;;;;17.90;62.13;102273.06;5014622;28;45413;-93
2021/07/17 07:03:16;;;;;;;;;21.50;18.50;;;;;17.94;62.00;102270.28;5014473;28;45438;-94
2021/07/17 07:05:42;;;;;;;;;24.75;22.75;;;;;17.98;61.65;102261.31;4998235;28;45421;-93
2021/07/17 07:08:07;;;;;;;;;22.75;18.25;;;;;18.04;61.89;102263.69;5013823;28;47256;-93
2021/07/17 07:10:32;;;;;;;;;21.75;18.50;;;;;18.12;62.01;102266.91;5012895;28;45418;-93
2021/07/17 07:12:58;;;;;;;;;22.25;17.25;;;;;18.16;61.93;102271.09;4997558;28;45367;-94
2021/07/17 07:15:25;;;;;;;;;20.75;18.75;;;;;18.26;61.29;102274.19;4994588;28;45360;-93
2021/07/17 07:17:51;;;;;;;;;24.25;19.00;;;;;18.33;61.57;102274.75;4978041;28;47055;-94
2021/07/17 07:20:16;;;;;;;;;24.50;20.50;;;;;18.39;61.25;102281.53;4983724;28;45315;-93
2021/07/17 07:22:42;;;;;;;;;23.50;20.00;;;;;18.41;61.29;102274.41;4993639;28;45382;-94
2021/07/17 07:25:09;;;;;;;;;21.00;17.75;;;;;18.49;61.15;102287.25;4998194;28;45418;-93
2021/07/17 07:27:35;;;;;;;;;24.25;20.75;;;;;18.52;61.16;102287.13;4993853;28;47291;-94
2021/07/17 07:30:01;;;;;;;;;23.00;19.00;;;;;18.59;61.53;102293.81;4988844;28;45472;-93
2021/07/17 07:32:27;;;;;;;;;19.50;19.50;;;;;18.61;60.70;102286.69;5005889;28;45415;-93
2021/07/17 07:34:53;;;;;;;;;18.50;16.00;;;;;18.70;60.88;102309.13;5002014;28;45469;-93
2021/07/17 07:37:18;;;;;;;;;26.00;22.50;;;;;18.77;61.19;102312.34;4997423;28;46970;-93
2021/07/17 07:39:44;;;;;;;;;21.00;18.75;;;;;18.84;60.95;102311.13;4993905;28;45368;-94
2021/07/17 07:42:09;;;;;;;;;24.50;21.50;;;;;18.87;60.81;102304.88;4980361;28;45319;-94
2021/07/17 07:44:36;;;;;;;;;21.25;18.25;;;;;18.91;60.69;102311.72;4994543;28;45464;-93
2021/07/17 07:47:03;;;;;;;;;21.00;17.00;;;;;18.96;60.47;102301.81;4985200;28;47419;-93
2021/07/17 07:49:28;;;;;;;;;18.75;17.75;;;;;19.00;60.46;102300.75;5007547;28;45360;-93
2021/07/17 07:51:54;;;;;;;;;23.50;20.75;;;;;19.06;60.49;102304.91;4995861;28;45364;-93
2021/07/17 07:54:19;;;;;;;;;23.75;20.50;;;;;19.13;60.71;102306.34;4993922;28;45257;-92
2021/07/17 07:56:45;;;;;;;;;21.00;19.25;;;;;19.17;60.91;102309.69;4999391;28;48573;-93
2021/07/17 07:59:10;;;;;;;;;22.25;19.50;;;;;19.20;60.52;102307.75;4993674;28;45358;-93
2021/07/17 08:01:36;;;;;;;;;24.00;21.25;;;;;19.28;60.40;102323.22;4996956;28;45383;-93
2021/07/17 08:04:01;;;;;;;;;19.25;18.50;;;;;19.34;60.71;102319.41;4993337;28;45568;-93
2021/07/17 08:06:28;;;;;;;;;23.25;18.75;;;;;19.38;60.60;102322.78;4987859;28;45743;-93
2021/07/17 08:08:54;;;;;;;;;20.00;18.00;;;;;19.41;60.10;102323.50;4997269;28;45440;-94
2021/07/17 08:11:19;;;;;;;;;23.75;19.00;;;;;19.43;60.11;102321.63;4997118;28;45368;-92
2021/07/17 08:13:45;;;;;;;;;21.25;17.50;;;;;19.47;59.91;102311.75;4997016;28;45336;-93
2021/07/17 08:16:10;;;;;;;;;23.00;20.00;;;;;19.50;60.18;102308.97;4996498;28;46916;-93
2021/07/17 08:18:36;;;;;;;;;21.75;18.75;;;;;19.55;60.12;102308.75;4996889;28;45483;-93
2021/07/17 08:21:02;;;;;;;;;19.25;16.50;;;;;19.61;60.07;102309.31;4987617;28;44734;-92
2021/07/17 08:23:27;;;;;;;;;22.00;20.75;;;;;19.63;60.10;102306.59;4977366;28;45325;-93
2021/07/17 08:25:53;;;;;;;;;25.00;23.25;;;;;19.68;59.55;102316.91;4976672;28;47024;-92
2021/07/17 08:28:19;;;;;;;;;23.75;20.00;;;;;19.72;59.88;102305.28;4976864;28;45362;-92
2021/07/17 08:30:44;;;;;;;;;24.75;22.00;;;;;19.79;59.81;102306.66;4993698;28;45315;-92
2021/07/17 08:33:10;;;;;;;;;23.25;18.00;;;;;19.84;59.64;102309.06;4996983;28;45772;-92
2021/07/17 08:35:36;;;;;;;;;25.25;18.75;;;;;19.83;59.81;102302.94;4996440;28;46892;-93
2021/07/17 08:38:01;;;;;;;;;20.75;19.25;;;;;19.90;59.92;102299.06;4996723;28;45356;-93
2021/07/17 08:40:27;;;;;;;;;22.25;21.50;;;;;19.96;59.61;102311.16;4996593;28;45385;-94
2021/07/17 08:42:55;;;;;;;;;18.75;18.00;;;;;19.99;59.70;102308.31;4984001;28;45563;-91
2021/07/17 08:45:22;;;;;;;;;22.00;17.50;;;;;20.00;59.62;102315.31;5008464;28;47356;-92
2021/07/17 08:47:50;;;;;;;;;26.00;21.75;;;;;20.03;59.68;102314.31;4999000;28;45355;-93
2021/07/17 08:50:21;;;;;;;;;19.00;18.00;;;;;20.06;59.44;102308.00;4996431;28;45430;-93
2021/07/17 08:52:50;;;;;;;;;26.50;21.50;;;;;20.11;59.55;102313.91;4996232;28;45381;-92
2021/07/17 08:55:15;;;;;;;;;21.50;20.75;;;;;20.15;59.49;102316.31;4996277;28;47403;-93
2021/07/17 08:57:45;;;;;;;;;22.00;20.25;;;;;20.20;59.51;102316.09;4973791;28;45351;-93
2021/07/17 09:00:15;;;;;;;;;26.75;19.75;;;;;20.22;59.27;102308.94;4982932;28;45356;-92
2021/07/17 09:02:43;;;;;;;;;24.75;20.25;;;;;20.24;59.28;102303.56;4995893;28;45521;-92
2021/07/17 09:05:12;;;;;;;;;22.25;22.00;;;;;20.34;59.13;102296.88;4987000;28;47172;-92
2021/07/17 09:07:39;;;;;;;;;21.25;19.75;;;;;20.38;59.47;102295.78;4996529;28;46053;-93
2021/07/17 09:10:33;;;;;;;;;27.50;22.50;;;;;20.49;59.09;102295.19;4999671;28;45299;-92
2021/07/17 09:13:24;;;;;;;;;20.50;19.25;;;;;20.64;58.99;102304.06;5002913;28;45473;-93
2021/07/17 09:15:50;;;;;;;;;20.25;20.25;;;;;20.73;58.90;102293.94;4996319;28;47163;-92
2021/07/17 09:18:23;;;;;;;;;20.00;16.75;;;;;20.82;58.79;102294.28;4990801;28;45228;-93
2021/07/17 09:20:54;;;;;;;;;24.75;21.50;;;;;20.93;58.80;102293.72;4998029;28;45506;-94
2021/07/17 09:23:24;;;;;;;;;22.25;19.00;;;;;21.00;58.80;102291.59;5000985;28;45288;-92
2021/07/17 09:25:50;;;;;;;;;20.75;20.25;;;;;21.05;58.19;102289.53;4999394;28;47615;-92
2021/07/17 09:28:22;;;;;;;;;20.25;19.50;;;;;21.11;58.87;102282.19;5015940;28;45809;-92
2021/07/17 09:30:49;;;;;;;;;19.75;19.00;;;;;21.21;58.67;102283.38;5003887;28;45537;-93
2021/07/17 09:33:15;;;;;;;;;25.25;20.00;;;;;21.29;58.24;102282.94;4982456;28;45391;-92
2021/07/17 09:35:42;;;;;;;;;25.00;23.00;;;;;21.38;58.30;102285.06;5003624;28;48050;-93
2021/07/17 09:38:09;;;;;;;;;18.50;17.25;;;;;21.49;57.90;102281.78;4980167;28;45493;-93
2021/07/17 09:40:44;;;;;;;;;21.67;17.00;;;;;21.57;57.58;102276.88;4995547;28;45471;-92
2021/07/17 09:43:10;;;;;;;;;22.00;20.33;;;;;21.58;57.75;102275.94;4992174;28;45386;-93
2021/07/17 09:45:37;;;;;;;;;22.33;19.33;;;;;21.63;57.59;102273.88;4997928;28;47146;-93
2021/07/17 09:48:30;;;;;;;;;17.75;15.75;;;;;21.71;57.83;102275.28;4998847;28;45374;-92
2021/07/17 09:50:57;;;;;;;;;18.75;17.75;;;;;21.74;57.30;102278.59;4923154;28;45399;-92
2021/07/17 09:53:45;;;;;;;;;16.50;15.50;;;;;21.84;57.12;102286.84;4955608;28;45610;-93
2021/07/17 09:56:24;;;;;;;;;17.33;15.00;;;;;21.88;57.02;102284.84;4942330;28;46975;-93
2021/07/17 09:58:54;;;;;;;;;19.50;19.50;;;;;21.90;56.73;102277.69;4942367;28;45753;-94
2021/07/17 10:01:24;;;;;;;;;18.67;15.67;;;;;21.94;56.65;102284.47;4942077;28;45317;-94
2021/07/17 10:03:53;;;;;;;;;16.33;14.33;;;;;21.98;56.15;102290.47;4937071;28;45650;-94
2021/07/17 10:06:43;;;;;;;;;21.50;18.00;;;;;22.00;55.64;102285.91;4922894;28;51374;-94
2021/07/17 10:09:16;;;;;;;;;19.00;17.50;;;;;21.95;55.44;102288.00;4923791;28;46082;-94
2021/07/17 10:11:50;;;;;;;;;19.50;18.00;;;;;21.94;56.20;102288.94;4939552;28;45364;-94
2021/07/17 10:14:33;;;;;;;;;19.00;17.33;;;;;21.95;56.11;102285.34;4940052;28;45768;-94
2021/07/17 10:17:07;;;;;;;;;21.33;19.33;;;;;21.99;55.67;102289.53;4954409;28;47593;-94
2021/07/17 10:19:34;;;;;;;;;26.00;23.00;;;;;22.01;55.49;102284.97;4942505;28;45539;-95
2021/07/17 10:22:01;;;;;;;;;18.50;17.75;;;;;22.00;56.13;102289.41;4958815;28;45540;-94
2021/07/17 10:24:27;;;;;;;;;20.00;18.00;;;;;21.99;55.71;102287.69;4959062;28;45462;-94
2021/07/17 10:26:53;;;;;;;;;18.00;18.00;;;;;22.01;56.11;102285.84;4952734;28;47186;-94
2021/07/17 10:29:21;;;;;;;;;18.00;17.67;;;;;22.02;55.59;102284.03;4991205;28;45316;-94
2021/07/17 10:31:48;;;;;;;;;19.33;14.33;;;;;22.02;55.48;102279.59;4980530;28;45429;-93
2021/07/17 10:34:15;;;;;;;;;20.50;17.00;;;;;22.03;55.22;102275.97;5014250;28;45512;-93
2021/07/17 10:37:02;;;;;;;;;18.25;17.00;;;;;22.10;55.14;102280.91;4986135;28;47190;-94
2021/07/17 10:39:31;;;;;;;;;19.75;18.50;;;;;22.07;54.76;102274.00;4978127;28;45260;-93
2021/07/17 10:41:59;;;;;;;;;22.50;19.25;;;;;22.08;54.47;102272.22;5012968;28;45541;-94
2021/07/17 10:44:43;;;;;;;;;19.50;18.50;;;;;22.12;54.70;102265.78;4985492;28;45590;-95
2021/07/17 10:47:09;;;;;;;;;22.33;18.00;;;;;22.19;54.87;102264.44;4993266;28;47042;-95
2021/07/17 10:49:50;;;;;;;;;17.25;17.00;;;;;22.22;55.39;102266.91;4994646;28;45921;-94
2021/07/17 10:52:33;;;;;;;;;20.75;18.00;;;;;22.32;55.04;102264.53;4993609;28;45529;-94
2021/07/17 10:55:23;;;;;;;;;20.50;19.75;;;;;22.41;55.65;102260.47;4982136;28;45390;-94
2021/07/17 10:57:50;;;;;;;;;21.00;18.50;;;;;22.49;55.30;102265.28;4992786;28;47340;-94
2021/07/17 11:00:44;;;;;;;;;18.67;15.67;;;;;22.53;54.66;102267.69;4996830;28;45993;-94
2021/07/17 11:03:30;;;;;;;;;24.25;19.00;;;;;22.58;55.37;102269.19;4993535;28;45619;-96
2021/07/17 11:05:56;;;;;;;;;25.25;20.25;;;;;22.61;55.20;102261.88;4977691;28;45236;-94
2021/07/17 11:08:38;;;;;;;;;23.50;18.50;;;;;22.62;54.70;102260.06;4976059;28;47078;-95